sensor_id;sensor_type;location;lat;lon;timestamp;P1;durP1;ratioP1;P2;durP2;ratioP2
12675;SDS011;63820;65.654;21.944;2023-04-29T00:00:16;2.33;;;2.13;;
12675;SDS011;63820;65.654;21.944;2023-04-29T00:03:00;2.50;;;2.30;;
12675;SDS011;63820;65.654;21.944;2023-04-29T00:05:44;3.87;;;2.13;;
12675;SDS011;63820;65.654;21.944;2023-04-29T00:08:29;2.90;;;2.70;;
12675;SDS011;63820;65.654;21.944;2023-04-29T00:11:12;2.87;;;2.47;;
12675;SDS011;63820;65.654;21.944;2023-04-29T00:13:56;2.83;;;2.40;;
12675;SDS011;63820;65.654;21.944;2023-04-29T00:16:40;3.07;;;2.77;;
12675;SDS011;63820;65.654;21.944;2023-04-29T00:19:25;2.60;;;2.40;;
12675;SDS011;63820;65.654;21.944;2023-04-29T00:22:09;2.57;;;2.30;;
12675;SDS011;63820;65.654;21.944;2023-04-29T00:24:53;2.50;;;2.30;;
12675;SDS011;63820;65.654;21.944;2023-04-29T00:27:37;2.67;;;2.47;;
12675;SDS011;63820;65.654;21.944;2023-04-29T00:30:22;2.87;;;2.40;;
12675;SDS011;63820;65.654;21.944;2023-04-29T00:33:06;2.70;;;2.50;;
12675;SDS011;63820;65.654;21.944;2023-04-29T00:35:49;4.40;;;2.50;;
12675;SDS011;63820;65.654;21.944;2023-04-29T00:38:34;2.60;;;2.40;;
12675;SDS011;63820;65.654;21.944;2023-04-29T00:41:18;2.60;;;2.40;;
12675;SDS011;63820;65.654;21.944;2023-04-29T00:44:02;2.43;;;2.23;;
12675;SDS011;63820;65.654;21.944;2023-04-29T00:46:47;2.57;;;2.37;;
12675;SDS011;63820;65.654;21.944;2023-04-29T00:49:31;3.27;;;2.53;;
12675;SDS011;63820;65.654;21.944;2023-04-29T00:52:15;2.53;;;2.33;;
12675;SDS011;63820;65.654;21.944;2023-04-29T00:55:00;2.50;;;2.30;;
12675;SDS011;63820;65.654;21.944;2023-04-29T00:57:45;2.33;;;2.13;;
12675;SDS011;63820;65.654;21.944;2023-04-29T01:00:31;2.93;;;2.50;;
12675;SDS011;63820;65.654;21.944;2023-04-29T01:03:16;2.23;;;2.00;;
12675;SDS011;63820;65.654;21.944;2023-04-29T01:06:06;3.50;;;2.27;;
12675;SDS011;63820;65.654;21.944;2023-04-29T01:15:11;4.93;;;2.60;;
12675;SDS011;63820;65.654;21.944;2023-04-29T01:21:09;3.13;;;2.43;;
12675;SDS011;63820;65.654;21.944;2023-04-29T01:23:54;2.67;;;2.10;;
12675;SDS011;63820;65.654;21.944;2023-04-29T01:26:45;2.50;;;2.30;;
12675;SDS011;63820;65.654;21.944;2023-04-29T01:29:44;2.63;;;2.43;;
12675;SDS011;63820;65.654;21.944;2023-04-29T01:42:36;2.73;;;2.30;;
12675;SDS011;63820;65.654;21.944;2023-04-29T01:45:27;2.60;;;2.40;;
12675;SDS011;63820;65.654;21.944;2023-04-29T01:48:12;2.50;;;2.30;;
12675;SDS011;63820;65.654;21.944;2023-04-29T01:50:57;3.03;;;2.47;;
12675;SDS011;63820;65.654;21.944;2023-04-29T01:53:41;2.57;;;2.33;;
12675;SDS011;63820;65.654;21.944;2023-04-29T01:56:26;3.13;;;2.30;;
12675;SDS011;63820;65.654;21.944;2023-04-29T01:59:10;2.33;;;2.13;;
12675;SDS011;63820;65.654;21.944;2023-04-29T02:01:54;2.93;;;2.47;;
12675;SDS011;63820;65.654;21.944;2023-04-29T02:04:39;3.40;;;2.47;;
12675;SDS011;63820;65.654;21.944;2023-04-29T02:07:25;2.83;;;2.37;;
12675;SDS011;63820;65.654;21.944;2023-04-29T02:10:10;3.07;;;2.30;;
12675;SDS011;63820;65.654;21.944;2023-04-29T02:12:54;2.53;;;2.27;;
12675;SDS011;63820;65.654;21.944;2023-04-29T02:15:38;2.70;;;2.27;;
12675;SDS011;63820;65.654;21.944;2023-04-29T02:18:22;2.90;;;2.60;;
12675;SDS011;63820;65.654;21.944;2023-04-29T02:21:06;2.50;;;2.30;;
12675;SDS011;63820;65.654;21.944;2023-04-29T02:23:51;3.53;;;2.37;;
12675;SDS011;63820;65.654;21.944;2023-04-29T02:26:37;3.53;;;2.20;;
12675;SDS011;63820;65.654;21.944;2023-04-29T02:29:21;2.23;;;2.03;;
12675;SDS011;63820;65.654;21.944;2023-04-29T02:32:05;2.20;;;1.97;;
12675;SDS011;63820;65.654;21.944;2023-04-29T02:34:50;2.20;;;2.00;;
12675;SDS011;63820;65.654;21.944;2023-04-29T02:37:34;2.30;;;2.10;;
12675;SDS011;63820;65.654;21.944;2023-04-29T02:40:18;2.20;;;2.00;;
12675;SDS011;63820;65.654;21.944;2023-04-29T02:43:02;2.13;;;2.00;;
12675;SDS011;63820;65.654;21.944;2023-04-29T02:45:47;2.20;;;2.00;;
12675;SDS011;63820;65.654;21.944;2023-04-29T02:48:31;2.27;;;2.07;;
12675;SDS011;63820;65.654;21.944;2023-04-29T02:51:15;2.17;;;1.90;;
12675;SDS011;63820;65.654;21.944;2023-04-29T02:53:59;2.00;;;1.80;;
12675;SDS011;63820;65.654;21.944;2023-04-29T02:56:43;2.07;;;1.83;;
12675;SDS011;63820;65.654;21.944;2023-04-29T02:59:27;3.13;;;2.10;;
12675;SDS011;63820;65.654;21.944;2023-04-29T03:02:11;2.80;;;2.20;;
12675;SDS011;63820;65.654;21.944;2023-04-29T03:04:55;2.13;;;1.93;;
12675;SDS011;63820;65.654;21.944;2023-04-29T03:07:39;2.20;;;2.00;;
12675;SDS011;63820;65.654;21.944;2023-04-29T03:10:23;3.33;;;2.00;;
12675;SDS011;63820;65.654;21.944;2023-04-29T03:13:07;2.17;;;1.60;;
12675;SDS011;63820;65.654;21.944;2023-04-29T03:15:51;1.70;;;1.60;;
12675;SDS011;63820;65.654;21.944;2023-04-29T03:18:36;2.13;;;1.77;;
12675;SDS011;63820;65.654;21.944;2023-04-29T03:21:20;2.30;;;1.90;;
12675;SDS011;63820;65.654;21.944;2023-04-29T03:24:04;2.37;;;2.03;;
12675;SDS011;63820;65.654;21.944;2023-04-29T03:26:49;1.97;;;1.80;;
12675;SDS011;63820;65.654;21.944;2023-04-29T03:29:33;2.30;;;2.10;;
12675;SDS011;63820;65.654;21.944;2023-04-29T03:32:17;1.63;;;1.53;;
12675;SDS011;63820;65.654;21.944;2023-04-29T03:35:01;1.77;;;1.67;;
12675;SDS011;63820;65.654;21.944;2023-04-29T03:37:46;2.60;;;1.67;;
12675;SDS011;63820;65.654;21.944;2023-04-29T03:40:30;2.13;;;1.93;;
12675;SDS011;63820;65.654;21.944;2023-04-29T03:43:14;1.43;;;1.30;;
12675;SDS011;63820;65.654;21.944;2023-04-29T03:45:57;1.60;;;1.50;;
12675;SDS011;63820;65.654;21.944;2023-04-29T03:48:41;2.23;;;2.03;;
12675;SDS011;63820;65.654;21.944;2023-04-29T03:51:25;1.80;;;1.70;;
12675;SDS011;63820;65.654;21.944;2023-04-29T03:54:11;3.10;;;1.73;;
12675;SDS011;63820;65.654;21.944;2023-04-29T03:56:55;1.77;;;1.63;;
12675;SDS011;63820;65.654;21.944;2023-04-29T03:59:40;1.70;;;1.60;;
12675;SDS011;63820;65.654;21.944;2023-04-29T04:02:24;2.93;;;1.90;;
12675;SDS011;63820;65.654;21.944;2023-04-29T04:05:08;1.90;;;1.70;;
12675;SDS011;63820;65.654;21.944;2023-04-29T04:07:53;3.47;;;1.50;;
12675;SDS011;63820;65.654;21.944;2023-04-29T04:10:38;2.07;;;1.87;;
12675;SDS011;63820;65.654;21.944;2023-04-29T04:13:22;1.53;;;1.43;;
12675;SDS011;63820;65.654;21.944;2023-04-29T04:16:05;2.07;;;1.73;;
12675;SDS011;63820;65.654;21.944;2023-04-29T04:18:50;2.27;;;1.70;;
12675;SDS011;63820;65.654;21.944;2023-04-29T04:21:34;1.70;;;1.60;;
12675;SDS011;63820;65.654;21.944;2023-04-29T04:24:18;1.77;;;1.60;;
12675;SDS011;63820;65.654;21.944;2023-04-29T04:27:03;1.73;;;1.63;;
12675;SDS011;63820;65.654;21.944;2023-04-29T04:29:47;2.00;;;1.80;;
12675;SDS011;63820;65.654;21.944;2023-04-29T04:32:31;1.60;;;1.50;;
12675;SDS011;63820;65.654;21.944;2023-04-29T04:35:15;2.20;;;1.50;;
12675;SDS011;63820;65.654;21.944;2023-04-29T04:38:00;1.90;;;1.57;;
12675;SDS011;63820;65.654;21.944;2023-04-29T04:40:44;1.60;;;1.50;;
12675;SDS011;63820;65.654;21.944;2023-04-29T04:43:28;1.60;;;1.50;;
12675;SDS011;63820;65.654;21.944;2023-04-29T04:46:12;1.60;;;1.50;;
12675;SDS011;63820;65.654;21.944;2023-04-29T04:48:58;1.77;;;1.67;;
12675;SDS011;63820;65.654;21.944;2023-04-29T04:51:43;1.70;;;1.60;;
12675;SDS011;63820;65.654;21.944;2023-04-29T04:54:27;1.70;;;1.60;;
12675;SDS011;63820;65.654;21.944;2023-04-29T04:57:11;1.53;;;1.43;;
12675;SDS011;63820;65.654;21.944;2023-04-29T04:59:56;2.40;;;2.10;;
12675;SDS011;63820;65.654;21.944;2023-04-29T05:02:40;2.10;;;1.77;;
12675;SDS011;63820;65.654;21.944;2023-04-29T05:05:24;2.53;;;1.70;;
12675;SDS011;63820;65.654;21.944;2023-04-29T05:08:08;1.60;;;1.47;;
12675;SDS011;63820;65.654;21.944;2023-04-29T05:10:52;1.80;;;1.60;;
12675;SDS011;63820;65.654;21.944;2023-04-29T05:13:36;3.50;;;1.53;;
12675;SDS011;63820;65.654;21.944;2023-04-29T05:16:20;1.90;;;1.70;;
12675;SDS011;63820;65.654;21.944;2023-04-29T05:19:04;1.70;;;1.60;;
12675;SDS011;63820;65.654;21.944;2023-04-29T05:21:50;1.77;;;1.67;;
12675;SDS011;63820;65.654;21.944;2023-04-29T05:24:35;2.00;;;1.80;;
12675;SDS011;63820;65.654;21.944;2023-04-29T05:27:19;2.47;;;2.27;;
12675;SDS011;63820;65.654;21.944;2023-04-29T05:30:04;2.67;;;2.00;;
12675;SDS011;63820;65.654;21.944;2023-04-29T05:32:49;2.93;;;2.37;;
12675;SDS011;63820;65.654;21.944;2023-04-29T05:35:33;6.77;;;2.47;;
12675;SDS011;63820;65.654;21.944;2023-04-29T05:38:17;4.10;;;2.37;;
12675;SDS011;63820;65.654;21.944;2023-04-29T05:41:01;1.80;;;1.70;;
12675;SDS011;63820;65.654;21.944;2023-04-29T05:43:46;2.23;;;1.70;;
12675;SDS011;63820;65.654;21.944;2023-04-29T05:46:30;4.20;;;1.70;;
12675;SDS011;63820;65.654;21.944;2023-04-29T05:49:14;2.00;;;1.80;;
12675;SDS011;63820;65.654;21.944;2023-04-29T05:51:59;2.60;;;1.90;;
12675;SDS011;63820;65.654;21.944;2023-04-29T05:54:46;2.37;;;1.87;;
12675;SDS011;63820;65.654;21.944;2023-04-29T05:57:30;2.40;;;2.00;;
12675;SDS011;63820;65.654;21.944;2023-04-29T06:00:15;2.23;;;1.73;;
12675;SDS011;63820;65.654;21.944;2023-04-29T06:02:59;1.83;;;1.60;;
12675;SDS011;63820;65.654;21.944;2023-04-29T06:05:43;2.60;;;1.70;;
12675;SDS011;63820;65.654;21.944;2023-04-29T06:08:28;1.87;;;1.67;;
12675;SDS011;63820;65.654;21.944;2023-04-29T06:11:12;1.50;;;1.40;;
12675;SDS011;63820;65.654;21.944;2023-04-29T06:13:57;1.50;;;1.30;;
12675;SDS011;63820;65.654;21.944;2023-04-29T06:16:42;2.00;;;1.60;;
12675;SDS011;63820;65.654;21.944;2023-04-29T06:19:26;1.60;;;1.50;;
12675;SDS011;63820;65.654;21.944;2023-04-29T06:22:10;1.63;;;1.30;;
12675;SDS011;63820;65.654;21.944;2023-04-29T06:24:54;1.57;;;1.47;;
12675;SDS011;63820;65.654;21.944;2023-04-29T06:27:39;1.87;;;1.60;;
12675;SDS011;63820;65.654;21.944;2023-04-29T06:30:23;1.50;;;1.23;;
12675;SDS011;63820;65.654;21.944;2023-04-29T06:33:08;1.77;;;1.60;;
12675;SDS011;63820;65.654;21.944;2023-04-29T06:35:52;1.57;;;1.40;;
12675;SDS011;63820;65.654;21.944;2023-04-29T06:38:36;2.03;;;1.50;;
12675;SDS011;63820;65.654;21.944;2023-04-29T06:41:20;1.90;;;1.30;;
12675;SDS011;63820;65.654;21.944;2023-04-29T06:44:04;1.60;;;1.50;;
12675;SDS011;63820;65.654;21.944;2023-04-29T06:46:48;1.37;;;1.23;;
12675;SDS011;63820;65.654;21.944;2023-04-29T06:49:32;1.63;;;1.50;;
12675;SDS011;63820;65.654;21.944;2023-04-29T06:52:17;1.50;;;1.40;;
12675;SDS011;63820;65.654;21.944;2023-04-29T06:55:01;1.50;;;1.40;;
12675;SDS011;63820;65.654;21.944;2023-04-29T06:57:45;1.47;;;1.30;;
12675;SDS011;63820;65.654;21.944;2023-04-29T07:00:29;1.33;;;1.20;;
12675;SDS011;63820;65.654;21.944;2023-04-29T07:03:15;1.40;;;1.20;;
12675;SDS011;63820;65.654;21.944;2023-04-29T07:06:00;1.30;;;1.20;;
12675;SDS011;63820;65.654;21.944;2023-04-29T07:08:44;1.60;;;1.40;;
12675;SDS011;63820;65.654;21.944;2023-04-29T07:11:28;1.40;;;1.30;;
12675;SDS011;63820;65.654;21.944;2023-04-29T07:14:12;1.33;;;1.23;;
12675;SDS011;63820;65.654;21.944;2023-04-29T07:16:57;1.57;;;1.20;;
12675;SDS011;63820;65.654;21.944;2023-04-29T07:19:41;1.00;;;0.90;;
12675;SDS011;63820;65.654;21.944;2023-04-29T07:22:25;1.40;;;1.30;;
12675;SDS011;63820;65.654;21.944;2023-04-29T07:25:09;1.47;;;1.17;;
12675;SDS011;63820;65.654;21.944;2023-04-29T07:27:54;1.10;;;1.00;;
12675;SDS011;63820;65.654;21.944;2023-04-29T07:30:39;0.97;;;0.90;;
12675;SDS011;63820;65.654;21.944;2023-04-29T07:33:23;1.10;;;1.00;;
12675;SDS011;63820;65.654;21.944;2023-04-29T07:36:07;1.33;;;0.80;;
12675;SDS011;63820;65.654;21.944;2023-04-29T07:38:52;1.30;;;0.77;;
12675;SDS011;63820;65.654;21.944;2023-04-29T07:41:35;0.90;;;0.80;;
12675;SDS011;63820;65.654;21.944;2023-04-29T07:44:20;0.70;;;0.70;;
12675;SDS011;63820;65.654;21.944;2023-04-29T07:47:04;0.70;;;0.70;;
12675;SDS011;63820;65.654;21.944;2023-04-29T07:49:49;0.60;;;0.60;;
12675;SDS011;63820;65.654;21.944;2023-04-29T07:52:35;2.37;;;0.63;;
12675;SDS011;63820;65.654;21.944;2023-04-29T07:55:19;1.27;;;0.60;;
12675;SDS011;63820;65.654;21.944;2023-04-29T07:58:03;0.60;;;0.60;;
12675;SDS011;63820;65.654;21.944;2023-04-29T08:00:48;0.60;;;0.60;;
12675;SDS011;63820;65.654;21.944;2023-04-29T08:03:32;0.50;;;0.50;;
12675;SDS011;63820;65.654;21.944;2023-04-29T08:06:16;0.60;;;0.60;;
12675;SDS011;63820;65.654;21.944;2023-04-29T08:09:03;0.50;;;0.50;;
12675;SDS011;63820;65.654;21.944;2023-04-29T08:11:47;0.70;;;0.70;;
12675;SDS011;63820;65.654;21.944;2023-04-29T08:14:31;0.60;;;0.60;;
12675;SDS011;63820;65.654;21.944;2023-04-29T08:17:15;0.80;;;0.63;;
12675;SDS011;63820;65.654;21.944;2023-04-29T08:19:59;0.50;;;0.50;;
12675;SDS011;63820;65.654;21.944;2023-04-29T08:22:43;0.40;;;0.40;;
12675;SDS011;63820;65.654;21.944;2023-04-29T08:25:27;0.70;;;0.60;;
12675;SDS011;63820;65.654;21.944;2023-04-29T08:28:12;0.83;;;0.67;;
12675;SDS011;63820;65.654;21.944;2023-04-29T08:30:56;0.60;;;0.60;;
12675;SDS011;63820;65.654;21.944;2023-04-29T08:33:40;0.60;;;0.60;;
12675;SDS011;63820;65.654;21.944;2023-04-29T08:36:25;0.60;;;0.60;;
12675;SDS011;63820;65.654;21.944;2023-04-29T08:39:12;0.70;;;0.70;;
12675;SDS011;63820;65.654;21.944;2023-04-29T08:41:56;0.47;;;0.47;;
12675;SDS011;63820;65.654;21.944;2023-04-29T08:44:41;1.27;;;1.13;;
12675;SDS011;63820;65.654;21.944;2023-04-29T08:47:30;1.67;;;1.47;;
12675;SDS011;63820;65.654;21.944;2023-04-29T08:50:15;2.17;;;1.40;;
12675;SDS011;63820;65.654;21.944;2023-04-29T08:53:00;1.20;;;1.10;;
12675;SDS011;63820;65.654;21.944;2023-04-29T08:55:45;1.57;;;0.97;;
12675;SDS011;63820;65.654;21.944;2023-04-29T08:58:30;1.47;;;1.23;;
12675;SDS011;63820;65.654;21.944;2023-04-29T09:01:17;1.23;;;0.87;;
12675;SDS011;63820;65.654;21.944;2023-04-29T09:07:12;3.10;;;2.20;;
12675;SDS011;63820;65.654;21.944;2023-04-29T09:09:56;1.40;;;1.30;;
12675;SDS011;63820;65.654;21.944;2023-04-29T09:12:42;2.10;;;1.70;;
12675;SDS011;63820;65.654;21.944;2023-04-29T09:15:26;1.67;;;1.23;;
12675;SDS011;63820;65.654;21.944;2023-04-29T09:18:11;1.50;;;0.90;;
12675;SDS011;63820;65.654;21.944;2023-04-29T09:21:20;1.20;;;0.87;;
12675;SDS011;63820;65.654;21.944;2023-04-29T09:24:10;0.70;;;0.70;;
12675;SDS011;63820;65.654;21.944;2023-04-29T09:26:54;0.77;;;0.77;;
12675;SDS011;63820;65.654;21.944;2023-04-29T09:29:38;1.27;;;0.73;;
12675;SDS011;63820;65.654;21.944;2023-04-29T09:32:42;0.97;;;0.80;;
12675;SDS011;63820;65.654;21.944;2023-04-29T09:35:30;1.10;;;1.00;;
12675;SDS011;63820;65.654;21.944;2023-04-29T09:38:15;1.20;;;1.10;;
12675;SDS011;63820;65.654;21.944;2023-04-29T09:40:59;1.03;;;0.90;;
12675;SDS011;63820;65.654;21.944;2023-04-29T09:44:04;1.13;;;0.73;;
12675;SDS011;63820;65.654;21.944;2023-04-29T09:47:08;0.77;;;0.77;;
12675;SDS011;63820;65.654;21.944;2023-04-29T09:49:53;1.08;;;0.77;;
12675;SDS011;63820;65.654;21.944;2023-04-29T09:52:54;0.40;;;0.40;;
12675;SDS011;63820;65.654;21.944;2023-04-29T09:56:12;1.90;;;0.60;;
12675;SDS011;63820;65.654;21.944;2023-04-29T09:58:50;0.60;;;0.60;;
12675;SDS011;63820;65.654;21.944;2023-04-29T10:01:34;0.65;;;0.60;;
12675;SDS011;63820;65.654;21.944;2023-04-29T10:04:19;0.68;;;0.68;;
12675;SDS011;63820;65.654;21.944;2023-04-29T10:07:04;0.70;;;0.70;;
12675;SDS011;63820;65.654;21.944;2023-04-29T10:09:50;0.60;;;0.60;;
12675;SDS011;63820;65.654;21.944;2023-04-29T10:12:34;1.30;;;0.85;;
12675;SDS011;63820;65.654;21.944;2023-04-29T10:15:25;0.80;;;0.80;;
12675;SDS011;63820;65.654;21.944;2023-04-29T10:18:21;0.68;;;0.60;;
12675;SDS011;63820;65.654;21.944;2023-04-29T10:21:13;2.88;;;1.00;;
12675;SDS011;63820;65.654;21.944;2023-04-29T10:23:57;0.70;;;0.70;;
12675;SDS011;63820;65.654;21.944;2023-04-29T10:26:42;0.80;;;0.70;;
12675;SDS011;63820;65.654;21.944;2023-04-29T10:29:27;0.80;;;0.80;;
12675;SDS011;63820;65.654;21.944;2023-04-29T10:32:14;0.60;;;0.60;;
12675;SDS011;63820;65.654;21.944;2023-04-29T10:35:00;0.70;;;0.63;;
12675;SDS011;63820;65.654;21.944;2023-04-29T10:37:46;0.60;;;0.60;;
12675;SDS011;63820;65.654;21.944;2023-04-29T10:43:29;0.57;;;0.57;;
12675;SDS011;63820;65.654;21.944;2023-04-29T10:46:18;0.70;;;0.60;;
12675;SDS011;63820;65.654;21.944;2023-04-29T10:49:04;0.70;;;0.70;;
12675;SDS011;63820;65.654;21.944;2023-04-29T10:51:49;0.80;;;0.80;;
12675;SDS011;63820;65.654;21.944;2023-04-29T10:54:34;0.60;;;0.60;;
12675;SDS011;63820;65.654;21.944;2023-04-29T10:57:21;0.60;;;0.60;;
12675;SDS011;63820;65.654;21.944;2023-04-29T11:00:05;0.50;;;0.50;;
12675;SDS011;63820;65.654;21.944;2023-04-29T11:02:50;0.60;;;0.60;;
12675;SDS011;63820;65.654;21.944;2023-04-29T11:05:34;1.37;;;0.60;;
12675;SDS011;63820;65.654;21.944;2023-04-29T11:08:20;0.70;;;0.70;;
12675;SDS011;63820;65.654;21.944;2023-04-29T11:11:06;0.83;;;0.70;;
12675;SDS011;63820;65.654;21.944;2023-04-29T11:13:51;0.73;;;0.73;;
12675;SDS011;63820;65.654;21.944;2023-04-29T11:16:36;0.70;;;0.70;;
12675;SDS011;63820;65.654;21.944;2023-04-29T11:19:20;0.70;;;0.70;;
12675;SDS011;63820;65.654;21.944;2023-04-29T11:22:11;0.70;;;0.70;;
12675;SDS011;63820;65.654;21.944;2023-04-29T11:25:02;0.70;;;0.70;;
12675;SDS011;63820;65.654;21.944;2023-04-29T11:27:48;0.70;;;0.70;;
12675;SDS011;63820;65.654;21.944;2023-04-29T11:30:34;1.00;;;0.90;;
12675;SDS011;63820;65.654;21.944;2023-04-29T11:33:19;0.70;;;0.70;;
12675;SDS011;63820;65.654;21.944;2023-04-29T11:36:03;1.03;;;0.90;;
12675;SDS011;63820;65.654;21.944;2023-04-29T11:38:47;2.00;;;0.70;;
12675;SDS011;63820;65.654;21.944;2023-04-29T11:41:31;0.93;;;0.90;;
12675;SDS011;63820;65.654;21.944;2023-04-29T11:44:20;0.83;;;0.70;;
12675;SDS011;63820;65.654;21.944;2023-04-29T11:47:05;0.87;;;0.83;;
12675;SDS011;63820;65.654;21.944;2023-04-29T11:49:50;0.90;;;0.90;;
12675;SDS011;63820;65.654;21.944;2023-04-29T11:52:35;0.83;;;0.83;;
12675;SDS011;63820;65.654;21.944;2023-04-29T11:55:20;0.80;;;0.80;;
12675;SDS011;63820;65.654;21.944;2023-04-29T11:58:04;0.90;;;0.90;;
12675;SDS011;63820;65.654;21.944;2023-04-29T12:00:49;0.90;;;0.73;;
12675;SDS011;63820;65.654;21.944;2023-04-29T12:03:34;1.00;;;0.90;;
12675;SDS011;63820;65.654;21.944;2023-04-29T12:06:19;0.90;;;0.90;;
12675;SDS011;63820;65.654;21.944;2023-04-29T12:09:03;0.93;;;0.90;;
12675;SDS011;63820;65.654;21.944;2023-04-29T12:11:47;1.20;;;1.10;;
12675;SDS011;63820;65.654;21.944;2023-04-29T12:14:33;0.80;;;0.80;;
12675;SDS011;63820;65.654;21.944;2023-04-29T12:17:18;1.20;;;1.10;;
12675;SDS011;63820;65.654;21.944;2023-04-29T12:20:03;1.37;;;1.10;;
12675;SDS011;63820;65.654;21.944;2023-04-29T12:22:47;1.20;;;1.10;;
12675;SDS011;63820;65.654;21.944;2023-04-29T12:25:32;1.00;;;1.00;;
12675;SDS011;63820;65.654;21.944;2023-04-29T12:28:16;1.20;;;1.10;;
12675;SDS011;63820;65.654;21.944;2023-04-29T12:31:00;1.13;;;1.03;;
12675;SDS011;63820;65.654;21.944;2023-04-29T12:33:44;1.20;;;1.10;;
12675;SDS011;63820;65.654;21.944;2023-04-29T12:36:29;1.20;;;1.10;;
12675;SDS011;63820;65.654;21.944;2023-04-29T12:39:13;1.10;;;1.00;;
12675;SDS011;63820;65.654;21.944;2023-04-29T12:41:59;1.20;;;1.10;;
12675;SDS011;63820;65.654;21.944;2023-04-29T12:44:44;1.10;;;1.00;;
12675;SDS011;63820;65.654;21.944;2023-04-29T12:47:32;1.33;;;1.03;;
12675;SDS011;63820;65.654;21.944;2023-04-29T12:50:17;1.53;;;1.10;;
12675;SDS011;63820;65.654;21.944;2023-04-29T12:53:02;12.80;;;1.90;;
12675;SDS011;63820;65.654;21.944;2023-04-29T12:55:48;0.93;;;0.93;;
12675;SDS011;63820;65.654;21.944;2023-04-29T12:58:32;1.30;;;1.20;;
12675;SDS011;63820;65.654;21.944;2023-04-29T13:01:19;1.30;;;1.20;;
12675;SDS011;63820;65.654;21.944;2023-04-29T13:04:04;1.10;;;1.00;;
12675;SDS011;63820;65.654;21.944;2023-04-29T13:06:51;1.07;;;1.07;;
12675;SDS011;63820;65.654;21.944;2023-04-29T13:09:42;1.20;;;1.10;;
12675;SDS011;63820;65.654;21.944;2023-04-29T13:12:26;1.30;;;1.20;;
12675;SDS011;63820;65.654;21.944;2023-04-29T13:15:10;1.20;;;1.10;;
12675;SDS011;63820;65.654;21.944;2023-04-29T13:17:55;1.67;;;1.50;;
12675;SDS011;63820;65.654;21.944;2023-04-29T13:20:41;1.93;;;1.70;;
12675;SDS011;63820;65.654;21.944;2023-04-29T13:23:25;2.33;;;1.73;;
12675;SDS011;63820;65.654;21.944;2023-04-29T13:26:09;1.70;;;1.60;;
12675;SDS011;63820;65.654;21.944;2023-04-29T13:28:53;1.70;;;1.60;;
12675;SDS011;63820;65.654;21.944;2023-04-29T13:31:38;2.63;;;1.60;;
12675;SDS011;63820;65.654;21.944;2023-04-29T13:34:22;2.30;;;2.10;;
12675;SDS011;63820;65.654;21.944;2023-04-29T13:37:06;2.20;;;2.00;;
12675;SDS011;63820;65.654;21.944;2023-04-29T13:39:50;2.97;;;2.13;;
12675;SDS011;63820;65.654;21.944;2023-04-29T13:42:35;2.37;;;2.00;;
12675;SDS011;63820;65.654;21.944;2023-04-29T13:45:19;2.43;;;1.90;;
12675;SDS011;63820;65.654;21.944;2023-04-29T13:48:03;2.00;;;1.80;;
12675;SDS011;63820;65.654;21.944;2023-04-29T13:50:47;1.80;;;1.70;;
12675;SDS011;63820;65.654;21.944;2023-04-29T13:53:31;1.90;;;1.70;;
12675;SDS011;63820;65.654;21.944;2023-04-29T13:56:15;1.70;;;1.53;;
12675;SDS011;63820;65.654;21.944;2023-04-29T13:59:00;1.70;;;1.60;;
12675;SDS011;63820;65.654;21.944;2023-04-29T14:01:44;1.70;;;1.60;;
12675;SDS011;63820;65.654;21.944;2023-04-29T14:04:28;1.90;;;1.80;;
12675;SDS011;63820;65.654;21.944;2023-04-29T14:07:12;1.87;;;1.60;;
12675;SDS011;63820;65.654;21.944;2023-04-29T14:09:57;1.60;;;1.50;;
12675;SDS011;63820;65.654;21.944;2023-04-29T14:12:41;1.60;;;1.50;;
12675;SDS011;63820;65.654;21.944;2023-04-29T14:15:25;1.53;;;1.43;;
12675;SDS011;63820;65.654;21.944;2023-04-29T14:18:10;1.20;;;1.10;;
12675;SDS011;63820;65.654;21.944;2023-04-29T14:20:55;1.70;;;1.60;;
12675;SDS011;63820;65.654;21.944;2023-04-29T14:23:40;1.30;;;1.20;;
12675;SDS011;63820;65.654;21.944;2023-04-29T14:26:24;1.60;;;1.50;;
12675;SDS011;63820;65.654;21.944;2023-04-29T14:29:09;1.60;;;1.40;;
12675;SDS011;63820;65.654;21.944;2023-04-29T14:31:54;1.87;;;1.60;;
12675;SDS011;63820;65.654;21.944;2023-04-29T14:34:38;1.67;;;1.57;;
12675;SDS011;63820;65.654;21.944;2023-04-29T14:37:22;1.50;;;1.40;;
12675;SDS011;63820;65.654;21.944;2023-04-29T14:40:06;1.70;;;1.60;;
12675;SDS011;63820;65.654;21.944;2023-04-29T14:42:52;1.60;;;1.47;;
12675;SDS011;63820;65.654;21.944;2023-04-29T14:45:36;1.40;;;1.30;;
12675;SDS011;63820;65.654;21.944;2023-04-29T14:48:20;1.50;;;1.40;;
12675;SDS011;63820;65.654;21.944;2023-04-29T14:51:04;1.43;;;1.33;;
12675;SDS011;63820;65.654;21.944;2023-04-29T14:53:49;1.53;;;1.43;;
12675;SDS011;63820;65.654;21.944;2023-04-29T14:56:34;1.70;;;1.60;;
12675;SDS011;63820;65.654;21.944;2023-04-29T14:59:20;1.43;;;1.30;;
12675;SDS011;63820;65.654;21.944;2023-04-29T15:02:04;1.63;;;1.53;;
12675;SDS011;63820;65.654;21.944;2023-04-29T15:04:49;1.90;;;1.70;;
12675;SDS011;63820;65.654;21.944;2023-04-29T15:07:33;1.70;;;1.60;;
12675;SDS011;63820;65.654;21.944;2023-04-29T15:10:18;2.23;;;2.03;;
12675;SDS011;63820;65.654;21.944;2023-04-29T15:13:03;6.53;;;2.50;;
12675;SDS011;63820;65.654;21.944;2023-04-29T15:15:48;2.63;;;2.43;;
12675;SDS011;63820;65.654;21.944;2023-04-29T15:18:33;3.07;;;2.70;;
12675;SDS011;63820;65.654;21.944;2023-04-29T15:21:18;3.37;;;3.00;;
12675;SDS011;63820;65.654;21.944;2023-04-29T15:24:02;3.70;;;3.40;;
12675;SDS011;63820;65.654;21.944;2023-04-29T15:26:47;3.30;;;3.00;;
12675;SDS011;63820;65.654;21.944;2023-04-29T15:29:31;4.20;;;3.80;;
12675;SDS011;63820;65.654;21.944;2023-04-29T15:32:17;4.10;;;3.70;;
12675;SDS011;63820;65.654;21.944;2023-04-29T15:35:02;4.13;;;3.73;;
12675;SDS011;63820;65.654;21.944;2023-04-29T15:37:47;3.73;;;3.33;;
12675;SDS011;63820;65.654;21.944;2023-04-29T15:40:31;3.40;;;3.10;;
12675;SDS011;63820;65.654;21.944;2023-04-29T15:43:16;3.33;;;3.00;;
12675;SDS011;63820;65.654;21.944;2023-04-29T15:46:00;3.53;;;3.23;;
12675;SDS011;63820;65.654;21.944;2023-04-29T15:48:44;3.80;;;3.40;;
12675;SDS011;63820;65.654;21.944;2023-04-29T15:51:28;3.57;;;3.03;;
12675;SDS011;63820;65.654;21.944;2023-04-29T15:54:13;3.73;;;3.23;;
12675;SDS011;63820;65.654;21.944;2023-04-29T15:56:57;3.37;;;3.07;;
12675;SDS011;63820;65.654;21.944;2023-04-29T15:59:41;3.33;;;3.03;;
12675;SDS011;63820;65.654;21.944;2023-04-29T16:02:25;3.33;;;3.03;;
12675;SDS011;63820;65.654;21.944;2023-04-29T16:05:09;3.13;;;2.77;;
12675;SDS011;63820;65.654;21.944;2023-04-29T16:07:53;2.83;;;2.60;;
12675;SDS011;63820;65.654;21.944;2023-04-29T16:10:37;2.83;;;2.50;;
12675;SDS011;63820;65.654;21.944;2023-04-29T16:13:21;2.60;;;2.40;;
12675;SDS011;63820;65.654;21.944;2023-04-29T16:16:05;2.63;;;2.43;;
12675;SDS011;63820;65.654;21.944;2023-04-29T16:18:50;2.60;;;2.40;;
12675;SDS011;63820;65.654;21.944;2023-04-29T16:21:34;2.60;;;2.40;;
12675;SDS011;63820;65.654;21.944;2023-04-29T16:24:18;2.80;;;2.60;;
12675;SDS011;63820;65.654;21.944;2023-04-29T16:27:02;4.00;;;2.97;;
12675;SDS011;63820;65.654;21.944;2023-04-29T16:29:46;3.53;;;2.60;;
12675;SDS011;63820;65.654;21.944;2023-04-29T16:32:30;3.10;;;2.80;;
12675;SDS011;63820;65.654;21.944;2023-04-29T16:35:16;2.70;;;2.33;;
12675;SDS011;63820;65.654;21.944;2023-04-29T16:38:00;2.73;;;2.50;;
12675;SDS011;63820;65.654;21.944;2023-04-29T16:40:44;2.57;;;2.37;;
12675;SDS011;63820;65.654;21.944;2023-04-29T16:43:29;2.80;;;2.60;;